createdAt,value
2018-01-27T00:00:21.098Z,1012.79
2018-01-27T00:01:01.617Z,1012.78
2018-01-27T00:01:42.246Z,1012.77
2018-01-27T00:02:23.631Z,1012.75
2018-01-27T00:03:04.152Z,1012.75
2018-01-27T00:03:44.717Z,1012.73
2018-01-27T00:04:25.277Z,1012.72
2018-01-27T00:05:05.813Z,1012.73
2018-01-27T00:05:46.498Z,1012.74
2018-01-27T00:06:27.371Z,1012.73
2018-01-27T00:07:07.785Z,1012.71
2018-01-27T00:07:48.369Z,1012.69
2018-01-27T00:08:28.986Z,1012.69
2018-01-27T00:09:09.517Z,1012.7
2018-01-27T00:09:50.053Z,1012.78
2018-01-27T00:10:30.623Z,1012.75
2018-01-27T00:11:11.160Z,1012.79
2018-01-27T00:11:52.193Z,1012.78
2018-01-27T00:12:32.745Z,1012.77
2018-01-27T00:13:13.286Z,1012.78
2018-01-27T00:13:53.898Z,1012.73
2018-01-27T00:14:34.387Z,1012.76
2018-01-27T00:15:14.929Z,1012.74
2018-01-27T00:15:55.457Z,1012.78
2018-01-27T00:16:36.004Z,1012.8
2018-01-27T00:17:16.624Z,1012.77
2018-01-27T00:17:57.548Z,1012.83
2018-01-27T00:18:38.314Z,1012.8
2018-01-27T00:19:18.810Z,1012.78
2018-01-27T00:19:59.396Z,1012.77
2018-01-27T00:20:39.900Z,1012.79
2018-01-27T00:21:20.427Z,1012.82
2018-01-27T00:22:00.968Z,1012.82
2018-01-27T00:22:41.501Z,1012.85
2018-01-27T00:23:22.227Z,1012.81
2018-01-27T00:24:02.785Z,1012.82
2018-01-27T00:24:43.339Z,1012.85
2018-01-27T00:25:23.867Z,1012.87
2018-01-27T00:26:04.401Z,1012.84
2018-01-27T00:26:44.981Z,1012.83
2018-01-27T00:27:25.561Z,1012.86
2018-01-27T00:28:06.797Z,1012.9
2018-01-27T00:28:46.629Z,1012.85
2018-01-27T00:29:27.422Z,1012.87
2018-01-27T00:30:08.000Z,1012.9
2018-01-27T00:30:48.576Z,1012.88
2018-01-27T00:31:29.112Z,1012.91
2018-01-27T00:32:09.664Z,1012.93
2018-01-27T00:32:50.252Z,1012.93
2018-01-27T00:33:30.740Z,1012.9
2018-01-27T00:34:11.276Z,1012.97
2018-01-27T00:34:52.067Z,1012.95
2018-01-27T00:35:32.817Z,1012.98
2018-01-27T00:36:13.411Z,1012.97
2018-01-27T00:36:53.994Z,1013
2018-01-27T00:37:34.482Z,1013
2018-01-27T00:38:15.045Z,1013
2018-01-27T00:38:55.600Z,1013.02
2018-01-27T00:39:36.146Z,1013.02
2018-01-27T00:40:17.088Z,1013
2018-01-27T00:40:58.523Z,1013.01
2018-01-27T00:41:38.934Z,1012.95
2018-01-27T00:42:19.502Z,1013.01
2018-01-27T00:43:00.039Z,1012.95
2018-01-27T00:43:40.575Z,1013.01
2018-01-27T00:44:21.134Z,1012.92
2018-01-27T00:45:01.705Z,1012.94
2018-01-27T00:45:42.311Z,1012.99
2018-01-27T00:46:22.851Z,1012.96
2018-01-27T00:47:03.358Z,1013
2018-01-27T00:47:43.933Z,1013.06
2018-01-27T00:48:24.469Z,1013.01
2018-01-27T00:49:04.971Z,1013.07
2018-01-27T00:49:45.494Z,1013.04
2018-01-27T00:50:26.543Z,1013.08
2018-01-27T00:51:07.246Z,1013.08
2018-01-27T00:51:47.829Z,1013.07
2018-01-27T00:52:28.350Z,1013.09
2018-01-27T00:53:08.907Z,1013.1
2018-01-27T00:53:49.462Z,1013.09
2018-01-27T00:54:29.986Z,1013.07
2018-01-27T00:55:11.836Z,1013.04
2018-01-27T00:55:52.660Z,1013.06
2018-01-27T00:56:33.269Z,1013.09
2018-01-27T00:57:13.779Z,1013.06
2018-01-27T00:57:54.291Z,1013.05
2018-01-27T00:58:34.838Z,1013.07
2018-01-27T00:59:15.398Z,1013.05
2018-01-27T00:59:55.964Z,1013.05
2018-01-27T01:00:36.695Z,1013.04
2018-01-27T01:01:17.524Z,1013.07
2018-01-27T01:01:58.070Z,1013.11
2018-01-27T01:02:38.594Z,1013.07
2018-01-27T01:03:19.089Z,1013.12
2018-01-27T01:03:59.622Z,1013.11
2018-01-27T01:04:40.196Z,1013.1
2018-01-27T01:05:21.778Z,1013.1
2018-01-27T01:06:02.511Z,1013.09
2018-01-27T01:06:43.172Z,1013.11
2018-01-27T01:07:23.801Z,1013.09
2018-01-27T01:08:04.298Z,1013.12
2018-01-27T01:08:44.840Z,1013.12
2018-01-27T01:09:25.386Z,1013.07
2018-01-27T01:10:06.376Z,1013.1
2018-01-27T01:10:47.324Z,1013.13
2018-01-27T01:11:27.849Z,1013.18
2018-01-27T01:12:08.392Z,1013.19
2018-01-27T01:12:48.934Z,1013.18
2018-01-27T01:13:29.468Z,1013.17
2018-01-27T01:14:10.021Z,1013.18
2018-01-27T01:14:50.804Z,1013.15
2018-01-27T01:15:31.397Z,1013.17
2018-01-27T01:16:12.118Z,1013.2
2018-01-27T01:16:52.672Z,1013.12
2018-01-27T01:17:33.209Z,1013.17
2018-01-27T01:18:13.708Z,1013.18
2018-01-27T01:18:54.310Z,1013.16
2018-01-27T01:19:34.850Z,1013.14
2018-01-27T01:20:15.399Z,1013.13
2018-01-27T01:20:56.142Z,1013.18
2018-01-27T01:21:37.346Z,1013.2
2018-01-27T01:22:17.947Z,1013.27
2018-01-27T01:22:58.448Z,1013.26
2018-01-27T01:23:39.353Z,1013.26
2018-01-27T01:24:19.864Z,1013.24
2018-01-27T01:25:00.413Z,1013.27
2018-01-27T01:25:41.315Z,1013.25
2018-01-27T01:26:22.120Z,1013.29
2018-01-27T01:27:02.673Z,1013.27
2018-01-27T01:27:43.232Z,1013.3
2018-01-27T01:28:23.750Z,1013.26
2018-01-27T01:29:04.290Z,1013.29
2018-01-27T01:29:44.851Z,1013.3
2018-01-27T01:30:25.385Z,1013.26
2018-01-27T01:31:06.226Z,1013.28
2018-01-27T01:31:46.803Z,1013.3
2018-01-27T01:32:27.441Z,1013.27
2018-01-27T01:33:08.012Z,1013.32
2018-01-27T01:33:48.568Z,1013.29
2018-01-27T01:34:29.097Z,1013.25
2018-01-27T01:35:09.637Z,1013.3
2018-01-27T01:35:50.216Z,1013.33
2018-01-27T01:36:30.763Z,1013.29
2018-01-27T01:37:11.327Z,1013.31
2018-01-27T01:37:52.178Z,1013.33
2018-01-27T01:38:32.739Z,1013.35
2018-01-27T01:39:13.258Z,1013.35
2018-01-27T01:39:53.841Z,1013.37
2018-01-27T01:40:34.739Z,1013.37
2018-01-27T01:41:15.314Z,1013.4
2018-01-27T01:41:56.089Z,1013.36
2018-01-27T01:42:36.653Z,1013.37
2018-01-27T01:43:17.210Z,1013.39
2018-01-27T01:43:57.752Z,1013.4
2018-01-27T01:44:38.290Z,1013.46
2018-01-27T01:45:18.822Z,1013.44
2018-01-27T01:46:00.502Z,1013.45
2018-01-27T01:46:41.041Z,1013.47
2018-01-27T01:47:21.589Z,1013.48
2018-01-27T01:48:02.138Z,1013.52
2018-01-27T01:48:42.597Z,1013.53
2018-01-27T01:49:23.133Z,1013.54
2018-01-27T01:50:03.696Z,1013.5
2018-01-27T01:50:44.291Z,1013.54
2018-01-27T01:51:25.171Z,1013.55
2018-01-27T01:52:05.716Z,1013.57
2018-01-27T01:52:46.281Z,1013.57
2018-01-27T01:53:26.827Z,1013.56
2018-01-27T01:54:07.372Z,1013.58
2018-01-27T01:54:47.932Z,1013.58
2018-01-27T01:55:28.443Z,1013.54
2018-01-27T01:56:10.165Z,1013.59
2018-01-27T01:56:50.712Z,1013.57
2018-01-27T01:57:31.278Z,1013.6
2018-01-27T01:58:11.833Z,1013.58
2018-01-27T01:58:52.397Z,1013.59
2018-01-27T01:59:32.927Z,1013.61
2018-01-27T02:00:13.492Z,1013.58
2018-01-27T02:00:54.052Z,1013.58
2018-01-27T02:01:35.385Z,1013.61
2018-01-27T02:02:15.990Z,1013.64
2018-01-27T02:02:56.563Z,1013.61
2018-01-27T02:03:37.079Z,1013.59
2018-01-27T02:04:17.622Z,1013.61
2018-01-27T02:04:58.193Z,1013.6
2018-01-27T02:05:38.720Z,1013.63
2018-01-27T02:06:19.722Z,1013.64
2018-01-27T02:07:01.841Z,1013.65
2018-01-27T02:07:42.421Z,1013.71
2018-01-27T02:08:22.960Z,1013.65
2018-01-27T02:09:03.467Z,1013.67
2018-01-27T02:09:44.047Z,1013.71
2018-01-27T02:10:24.889Z,1013.67
2018-01-27T02:11:05.601Z,1013.66
2018-01-27T02:11:46.158Z,1013.66
2018-01-27T02:12:26.699Z,1013.67
2018-01-27T02:13:07.250Z,1013.65
2018-01-27T02:13:47.822Z,1013.65
2018-01-27T02:14:28.356Z,1013.64
2018-01-27T02:15:08.905Z,1013.63
2018-01-27T02:15:49.719Z,1013.66
2018-01-27T02:16:30.547Z,1013.67
2018-01-27T02:17:11.023Z,1013.62
2018-01-27T02:17:51.572Z,1013.6
2018-01-27T02:18:32.120Z,1013.66
2018-01-27T02:19:12.670Z,1013.65
2018-01-27T02:19:53.231Z,1013.63
2018-01-27T02:20:33.778Z,1013.61
2018-01-27T02:21:14.282Z,1013.68
2018-01-27T02:21:54.813Z,1013.7
2018-01-27T02:22:35.362Z,1013.67
2018-01-27T02:23:15.906Z,1013.64
2018-01-27T02:23:56.433Z,1013.69
2018-01-27T02:24:37.024Z,1013.7
2018-01-27T02:25:17.541Z,1013.68
2018-01-27T02:25:58.146Z,1013.7
2018-01-27T02:26:38.684Z,1013.7
2018-01-27T02:27:19.244Z,1013.69
2018-01-27T02:27:59.794Z,1013.7
2018-01-27T02:28:40.316Z,1013.71
2018-01-27T02:29:20.850Z,1013.66
2018-01-27T02:30:01.394Z,1013.68
2018-01-27T02:30:41.968Z,1013.64
2018-01-27T02:31:22.518Z,1013.67
2018-01-27T02:32:03.050Z,1013.63
2018-01-27T02:32:43.612Z,1013.62
2018-01-27T02:33:24.155Z,1013.6
2018-01-27T02:34:04.687Z,1013.61
2018-01-27T02:34:45.241Z,1013.61
2018-01-27T02:35:25.719Z,1013.58
2018-01-27T02:36:06.257Z,1013.57
2018-01-27T02:36:46.762Z,1013.56
2018-01-27T02:37:27.377Z,1013.52
2018-01-27T02:38:07.931Z,1013.52
2018-01-27T02:38:48.481Z,1013.59
2018-01-27T02:39:29.038Z,1013.53
2018-01-27T02:40:09.583Z,1013.55
2018-01-27T02:40:50.127Z,1013.54
2018-01-27T02:41:30.677Z,1013.54
2018-01-27T02:42:11.201Z,1013.56
2018-01-27T02:42:51.746Z,1013.53
2018-01-27T02:43:32.275Z,1013.58
2018-01-27T02:44:12.830Z,1013.56
2018-01-27T02:44:53.390Z,1013.54
2018-01-27T02:45:33.952Z,1013.58
2018-01-27T02:46:14.480Z,1013.55
2018-01-27T02:46:55.028Z,1013.56
2018-01-27T02:47:35.560Z,1013.6
2018-01-27T02:48:16.077Z,1013.57
2018-01-27T02:48:56.640Z,1013.61
2018-01-27T02:49:37.252Z,1013.61
2018-01-27T02:50:17.816Z,1013.62
2018-01-27T02:50:58.393Z,1013.61
2018-01-27T02:51:38.916Z,1013.62
2018-01-27T02:52:19.434Z,1013.66
2018-01-27T02:52:59.979Z,1013.7
2018-01-27T02:53:40.502Z,1013.69
2018-01-27T02:54:21.039Z,1013.73
2018-01-27T02:55:01.592Z,1013.67
2018-01-27T02:55:42.108Z,1013.71
2018-01-27T02:56:22.670Z,1013.71
2018-01-27T02:57:03.218Z,1013.73
2018-01-27T02:57:43.862Z,1013.71
2018-01-27T02:58:24.448Z,1013.78
2018-01-27T02:59:04.986Z,1013.78
2018-01-27T02:59:45.540Z,1013.79
2018-01-27T03:00:26.106Z,1013.81
2018-01-27T03:01:06.669Z,1013.78
2018-01-27T03:01:47.204Z,1013.81
2018-01-27T03:02:27.758Z,1013.82
2018-01-27T03:03:08.298Z,1013.82
2018-01-27T03:03:48.830Z,1013.85
2018-01-27T03:04:29.380Z,1013.83
2018-01-27T03:05:09.900Z,1013.84
2018-01-27T03:05:50.492Z,1013.86
2018-01-27T03:06:31.019Z,1013.87
2018-01-27T03:07:11.552Z,1013.85
2018-01-27T03:07:52.100Z,1013.86
2018-01-27T03:08:32.651Z,1013.91
2018-01-27T03:09:13.198Z,1013.9
2018-01-27T03:09:53.896Z,1013.89
2018-01-27T03:10:34.381Z,1013.92
2018-01-27T03:11:14.943Z,1013.97
2018-01-27T03:11:55.500Z,1014
2018-01-27T03:12:36.023Z,1013.96
2018-01-27T03:13:16.555Z,1013.97
2018-01-27T03:13:57.131Z,1013.96
2018-01-27T03:14:37.669Z,1014
2018-01-27T03:15:18.196Z,1014.03
2018-01-27T03:15:58.746Z,1014.06
2018-01-27T03:16:39.418Z,1014
2018-01-27T03:17:19.990Z,1014.04
2018-01-27T03:18:00.529Z,1014.07
2018-01-27T03:18:41.047Z,1014.09
2018-01-27T03:19:21.593Z,1014.06
2018-01-27T03:20:02.157Z,1014.08
2018-01-27T03:20:42.692Z,1014.08
2018-01-27T03:21:23.280Z,1014.07
2018-01-27T03:22:03.828Z,1014.1
2018-01-27T03:22:44.408Z,1014.15
2018-01-27T03:23:24.979Z,1014.08
2018-01-27T03:24:05.505Z,1014.15
2018-01-27T03:24:46.060Z,1014.13
2018-01-27T03:25:26.604Z,1014.12
2018-01-27T03:26:07.158Z,1014.13
2018-01-27T03:26:47.700Z,1014.09
2018-01-27T03:27:28.203Z,1014.15
2018-01-27T03:28:08.777Z,1014.19
2018-01-27T03:28:49.332Z,1014.15
2018-01-27T03:29:29.883Z,1014.18
2018-01-27T03:30:10.438Z,1014.19
2018-01-27T03:30:50.980Z,1014.22
2018-01-27T03:31:31.525Z,1014.24
2018-01-27T03:32:12.062Z,1014.26
2018-01-27T03:32:52.600Z,1014.28
2018-01-27T03:33:33.162Z,1014.27
2018-01-27T03:34:13.703Z,1014.25
2018-01-27T03:34:54.256Z,1014.28
2018-01-27T03:35:34.805Z,1014.32
2018-01-27T03:36:15.356Z,1014.29
2018-01-27T03:36:55.884Z,1014.31
2018-01-27T03:37:36.426Z,1014.31
2018-01-27T03:38:16.982Z,1014.34
2018-01-27T03:38:57.532Z,1014.32
2018-01-27T03:39:38.075Z,1014.36
2018-01-27T03:40:18.641Z,1014.35
2018-01-27T03:40:59.184Z,1014.35
2018-01-27T03:41:39.732Z,1014.4
2018-01-27T03:42:20.271Z,1014.41
2018-01-27T03:43:00.795Z,1014.37
2018-01-27T03:43:41.366Z,1014.37
2018-01-27T03:44:21.877Z,1014.36
2018-01-27T03:45:02.431Z,1014.38
2018-01-27T03:45:42.976Z,1014.39
2018-01-27T03:46:23.536Z,1014.41
2018-01-27T03:47:04.078Z,1014.39
2018-01-27T03:47:44.651Z,1014.39
2018-01-27T03:48:25.182Z,1014.39
2018-01-27T03:49:05.728Z,1014.47
2018-01-27T03:49:46.301Z,1014.49
2018-01-27T03:50:26.833Z,1014.44
2018-01-27T03:51:07.352Z,1014.44
2018-01-27T03:51:47.917Z,1014.45
2018-01-27T03:52:28.498Z,1014.44
2018-01-27T03:53:09.069Z,1014.43
2018-01-27T03:53:49.587Z,1014.44
2018-01-27T03:54:30.122Z,1014.46
2018-01-27T03:55:10.663Z,1014.46
2018-01-27T03:55:51.230Z,1014.42
2018-01-27T03:56:31.814Z,1014.46
2018-01-27T03:57:12.332Z,1014.48
2018-01-27T03:57:52.873Z,1014.5
2018-01-27T03:58:33.422Z,1014.48
2018-01-27T03:59:13.997Z,1014.47
2018-01-27T03:59:54.517Z,1014.5
2018-01-27T04:00:35.038Z,1014.46
2018-01-27T04:01:15.605Z,1014.51
2018-01-27T04:01:56.107Z,1014.56
2018-01-27T04:02:36.656Z,1014.55
2018-01-27T04:03:17.201Z,1014.49
2018-01-27T04:03:57.738Z,1014.53
2018-01-27T04:04:38.273Z,1014.55
2018-01-27T04:05:18.829Z,1014.56
2018-01-27T04:05:59.393Z,1014.59
2018-01-27T04:06:39.932Z,1014.61
2018-01-27T04:07:20.448Z,1014.61
2018-01-27T04:08:00.991Z,1014.67
2018-01-27T04:08:41.554Z,1014.66
2018-01-27T04:09:22.100Z,1014.67
2018-01-27T04:10:02.642Z,1014.67
2018-01-27T04:10:43.168Z,1014.72
2018-01-27T04:11:23.706Z,1014.7
2018-01-27T04:12:04.247Z,1014.74
2018-01-27T04:12:44.826Z,1014.76
2018-01-27T04:13:25.418Z,1014.76
2018-01-27T04:14:05.927Z,1014.78
2018-01-27T04:14:46.478Z,1014.78
2018-01-27T04:15:27.048Z,1014.85
2018-01-27T04:16:07.578Z,1014.86
2018-01-27T04:16:48.163Z,1014.91
2018-01-27T04:17:28.758Z,1014.91
2018-01-27T04:18:09.303Z,1014.91
2018-01-27T04:18:49.840Z,1014.94
2018-01-27T04:19:30.372Z,1014.95
2018-01-27T04:20:10.911Z,1014.94
2018-01-27T04:20:51.443Z,1014.96
2018-01-27T04:21:31.964Z,1014.98
2018-01-27T04:22:12.541Z,1015.02
2018-01-27T04:22:53.139Z,1015.04
2018-01-27T04:23:33.634Z,1015.02
2018-01-27T04:24:14.203Z,1015.06
2018-01-27T04:24:54.741Z,1015.14
2018-01-27T04:25:35.314Z,1015.11
2018-01-27T04:26:15.855Z,1015.1
2018-01-27T04:26:56.357Z,1015.12
2018-01-27T04:27:36.921Z,1015.12
2018-01-27T04:28:17.461Z,1015.07
2018-01-27T04:28:58.024Z,1015.11
2018-01-27T04:29:38.588Z,1015.08
2018-01-27T04:30:19.114Z,1015.12
2018-01-27T04:30:59.640Z,1015.13
2018-01-27T04:31:40.218Z,1015.15
2018-01-27T04:32:20.737Z,1015.1
2018-01-27T04:33:01.288Z,1015.12
2018-01-27T04:33:41.835Z,1015.17
2018-01-27T04:34:22.396Z,1015.17
2018-01-27T04:35:02.962Z,1015.18
2018-01-27T04:35:43.510Z,1015.14
2018-01-27T04:36:24.054Z,1015.14
2018-01-27T04:37:04.589Z,1015.16
2018-01-27T04:37:45.173Z,1015.2
2018-01-27T04:38:25.697Z,1015.2
2018-01-27T04:39:06.240Z,1015.25
2018-01-27T04:39:46.793Z,1015.23
2018-01-27T04:40:27.336Z,1015.32
2018-01-27T04:41:07.884Z,1015.29
2018-01-27T04:41:48.413Z,1015.3
2018-01-27T04:42:29.056Z,1015.35
2018-01-27T04:43:09.600Z,1015.31
2018-01-27T04:43:50.159Z,1015.3
2018-01-27T04:44:30.694Z,1015.32
2018-01-27T04:45:11.256Z,1015.32
2018-01-27T04:45:51.786Z,1015.29
2018-01-27T04:46:32.327Z,1015.31
2018-01-27T04:47:12.871Z,1015.29
2018-01-27T04:47:53.404Z,1015.3
2018-01-27T04:48:33.894Z,1015.32
2018-01-27T04:49:14.479Z,1015.26
2018-01-27T04:49:55.010Z,1015.29
2018-01-27T04:50:35.566Z,1015.24
2018-01-27T04:51:16.133Z,1015.31
2018-01-27T04:51:56.690Z,1015.29
2018-01-27T04:52:37.196Z,1015.29
2018-01-27T04:53:17.739Z,1015.29
2018-01-27T04:53:58.266Z,1015.32
2018-01-27T04:54:38.852Z,1015.37
2018-01-27T04:55:19.414Z,1015.37
2018-01-27T04:55:59.966Z,1015.38
2018-01-27T04:56:40.501Z,1015.33
2018-01-27T04:57:21.041Z,1015.38
2018-01-27T04:58:01.588Z,1015.42
2018-01-27T04:58:42.159Z,1015.39
2018-01-27T04:59:22.680Z,1015.41
2018-01-27T05:00:03.238Z,1015.37
2018-01-27T05:00:43.752Z,1015.41
2018-01-27T05:01:24.286Z,1015.43
2018-01-27T05:02:04.836Z,1015.46
2018-01-27T05:02:45.356Z,1015.42
2018-01-27T05:03:25.935Z,1015.43
2018-01-27T05:04:06.416Z,1015.42
2018-01-27T05:04:46.965Z,1015.44
2018-01-27T05:05:27.474Z,1015.5
2018-01-27T05:06:08.022Z,1015.48
2018-01-27T05:06:48.626Z,1015.48
2018-01-27T05:07:29.156Z,1015.47
2018-01-27T05:08:09.701Z,1015.51
2018-01-27T05:08:50.252Z,1015.48
2018-01-27T05:09:30.780Z,1015.55
2018-01-27T05:10:11.357Z,1015.54
2018-01-27T05:10:51.862Z,1015.53
2018-01-27T05:11:32.460Z,1015.53
2018-01-27T05:12:13.010Z,1015.52
2018-01-27T05:12:53.562Z,1015.53
2018-01-27T05:13:34.104Z,1015.52
2018-01-27T05:14:14.659Z,1015.53
2018-01-27T05:14:55.189Z,1015.5
2018-01-27T05:15:35.739Z,1015.53
2018-01-27T05:16:16.269Z,1015.54
2018-01-27T05:16:56.801Z,1015.54
2018-01-27T05:17:37.366Z,1015.59
2018-01-27T05:18:17.915Z,1015.6
2018-01-27T05:18:58.468Z,1015.6
2018-01-27T05:19:39.034Z,1015.6
2018-01-27T05:20:19.585Z,1015.63
2018-01-27T05:21:00.129Z,1015.62
2018-01-27T05:21:40.684Z,1015.54
2018-01-27T05:22:21.246Z,1015.6
2018-01-27T05:23:01.791Z,1015.58
2018-01-27T05:23:42.341Z,1015.53
2018-01-27T05:24:22.905Z,1015.55
2018-01-27T05:25:03.522Z,1015.53
2018-01-27T05:25:44.050Z,1015.49
2018-01-27T05:26:24.573Z,1015.51
2018-01-27T05:27:05.137Z,1015.53
2018-01-27T05:27:45.671Z,1015.52
2018-01-27T05:28:26.239Z,1015.5
2018-01-27T05:29:06.821Z,1015.53
2018-01-27T05:29:47.346Z,1015.52
2018-01-27T05:30:27.905Z,1015.53
2018-01-27T05:31:08.403Z,1015.51
2018-01-27T05:31:48.955Z,1015.49
2018-01-27T05:32:29.502Z,1015.52
2018-01-27T05:33:10.023Z,1015.5
2018-01-27T05:33:50.547Z,1015.48
2018-01-27T05:34:31.104Z,1015.48
2018-01-27T05:35:11.647Z,1015.46
2018-01-27T05:35:52.183Z,1015.5
2018-01-27T05:36:32.730Z,1015.45
2018-01-27T05:37:13.277Z,1015.5
2018-01-27T05:37:53.841Z,1015.5
2018-01-27T05:38:34.380Z,1015.53
2018-01-27T05:39:14.941Z,1015.58
2018-01-27T05:39:55.482Z,1015.54
2018-01-27T05:40:36.068Z,1015.57
2018-01-27T05:41:16.611Z,1015.57
2018-01-27T05:41:57.170Z,1015.63
2018-01-27T05:42:37.688Z,1015.62
2018-01-27T05:43:18.277Z,1015.61
2018-01-27T05:43:58.807Z,1015.65
2018-01-27T05:44:39.310Z,1015.66
2018-01-27T05:45:19.799Z,1015.63
2018-01-27T05:46:00.361Z,1015.65
2018-01-27T05:46:40.891Z,1015.62
2018-01-27T05:47:21.480Z,1015.65
2018-01-27T05:48:01.977Z,1015.66
2018-01-27T05:48:42.505Z,1015.62
2018-01-27T05:49:23.070Z,1015.67
2018-01-27T05:50:03.629Z,1015.67
2018-01-27T05:50:44.148Z,1015.65
2018-01-27T05:51:24.693Z,1015.66
2018-01-27T05:52:05.270Z,1015.67
2018-01-27T05:52:45.800Z,1015.67
2018-01-27T05:53:26.350Z,1015.72
2018-01-27T05:54:06.919Z,1015.71
2018-01-27T05:54:47.449Z,1015.77
2018-01-27T05:55:27.995Z,1015.79
2018-01-27T05:56:08.510Z,1015.82
2018-01-27T05:56:49.048Z,1015.86
2018-01-27T05:57:29.587Z,1015.83
2018-01-27T05:58:10.112Z,1015.86
2018-01-27T05:58:50.699Z,1015.86
2018-01-27T05:59:31.236Z,1015.89
2018-01-27T06:00:11.807Z,1015.91
2018-01-27T06:00:52.353Z,1015.89
2018-01-27T06:01:32.864Z,1015.91
2018-01-27T06:02:13.407Z,1015.91
2018-01-27T06:02:53.943Z,1015.92
2018-01-27T06:03:34.505Z,1015.89
2018-01-27T06:04:15.028Z,1015.93
2018-01-27T06:04:55.556Z,1015.95
2018-01-27T06:05:36.099Z,1015.89
2018-01-27T06:06:16.649Z,1015.94
2018-01-27T06:06:57.176Z,1015.95
2018-01-27T06:07:37.710Z,1015.96
2018-01-27T06:08:18.271Z,1015.97
2018-01-27T06:08:58.804Z,1015.95
2018-01-27T06:09:39.914Z,1015.96
2018-01-27T06:10:19.887Z,1015.99
2018-01-27T06:11:00.432Z,1015.95
2018-01-27T06:11:41.004Z,1016.01
2018-01-27T06:12:21.527Z,1015.94
2018-01-27T06:13:02.092Z,1016
2018-01-27T06:13:42.596Z,1016
2018-01-27T06:14:23.147Z,1015.97
2018-01-27T06:15:03.698Z,1016.02
2018-01-27T06:15:44.249Z,1015.96
2018-01-27T06:16:24.816Z,1016
2018-01-27T06:17:05.322Z,1015.99
2018-01-27T06:17:45.863Z,1016.06
2018-01-27T06:18:26.408Z,1016.04
2018-01-27T06:19:06.986Z,1016.06
2018-01-27T06:19:47.537Z,1016.05
2018-01-27T06:20:28.068Z,1016.07
2018-01-27T06:21:08.600Z,1016.05
2018-01-27T06:21:49.147Z,1016.15
2018-01-27T06:22:29.719Z,1016.12
2018-01-27T06:23:10.273Z,1016.17
2018-01-27T06:23:50.797Z,1016.19
2018-01-27T06:24:31.338Z,1016.25
2018-01-27T06:25:11.884Z,1016.21
2018-01-27T06:25:52.433Z,1016.26
2018-01-27T06:26:32.998Z,1016.26
2018-01-27T06:27:13.551Z,1016.27
2018-01-27T06:27:54.130Z,1016.25
2018-01-27T06:28:34.651Z,1016.31
2018-01-27T06:29:15.195Z,1016.24
2018-01-27T06:29:55.764Z,1016.25
2018-01-27T06:30:36.290Z,1016.31
2018-01-27T06:31:16.878Z,1016.3
2018-01-27T06:31:57.427Z,1016.3
2018-01-27T06:32:37.953Z,1016.34
2018-01-27T06:33:18.480Z,1016.31
2018-01-27T06:33:59.048Z,1016.32
2018-01-27T06:34:39.648Z,1016.3
2018-01-27T06:35:20.130Z,1016.32
2018-01-27T06:36:00.722Z,1016.33
2018-01-27T06:36:41.216Z,1016.3
2018-01-27T06:37:21.749Z,1016.26
2018-01-27T06:38:02.310Z,1016.3
2018-01-27T06:38:42.854Z,1016.28
2018-01-27T06:39:23.426Z,1016.28
2018-01-27T06:40:03.929Z,1016.28
2018-01-27T06:40:44.489Z,1016.3
2018-01-27T06:41:25.070Z,1016.35
2018-01-27T06:42:05.590Z,1016.3
2018-01-27T06:42:46.186Z,1016.33
2018-01-27T06:43:26.696Z,1016.32
2018-01-27T06:44:07.237Z,1016.32
2018-01-27T06:44:47.821Z,1016.3
2018-01-27T06:45:28.348Z,1016.35
2018-01-27T06:46:08.959Z,1016.35
2018-01-27T06:46:49.492Z,1016.36
2018-01-27T06:47:30.068Z,1016.38
2018-01-27T06:48:10.604Z,1016.38
2018-01-27T06:48:51.278Z,1016.43
2018-01-27T06:49:31.894Z,1016.38
2018-01-27T06:50:12.435Z,1016.41
2018-01-27T06:50:52.965Z,1016.45
2018-01-27T06:51:33.517Z,1016.44
2018-01-27T06:52:14.088Z,1016.45
2018-01-27T06:52:54.604Z,1016.46
2018-01-27T06:53:35.181Z,1016.46
2018-01-27T06:54:15.703Z,1016.46
2018-01-27T06:54:56.240Z,1016.49
2018-01-27T06:55:36.810Z,1016.46
2018-01-27T06:56:17.378Z,1016.49
2018-01-27T06:56:57.887Z,1016.52
2018-01-27T06:57:38.417Z,1016.51
2018-01-27T06:58:18.969Z,1016.51
2018-01-27T06:58:59.580Z,1016.54
2018-01-27T06:59:40.140Z,1016.5
2018-01-27T07:00:20.643Z,1016.52
2018-01-27T07:01:01.195Z,1016.49
2018-01-27T07:01:41.712Z,1016.51
2018-01-27T07:02:22.238Z,1016.57
2018-01-27T07:03:02.782Z,1016.58
2018-01-27T07:03:43.324Z,1016.57
2018-01-27T07:04:23.902Z,1016.57
2018-01-27T07:05:04.444Z,1016.61
2018-01-27T07:05:45.010Z,1016.63
2018-01-27T07:06:25.526Z,1016.64
2018-01-27T07:07:06.078Z,1016.65
2018-01-27T07:07:46.621Z,1016.63
2018-01-27T07:08:27.109Z,1016.67
2018-01-27T07:09:07.649Z,1016.72
2018-01-27T07:09:48.176Z,1016.68
2018-01-27T07:10:28.667Z,1016.69
2018-01-27T07:11:09.225Z,1016.74
2018-01-27T07:11:49.774Z,1016.73
2018-01-27T07:12:30.318Z,1016.75
2018-01-27T07:13:10.855Z,1016.81
2018-01-27T07:13:51.403Z,1016.82
2018-01-27T07:14:31.927Z,1016.84
2018-01-27T07:15:12.507Z,1016.86
2018-01-27T07:15:52.995Z,1016.86
2018-01-27T07:16:33.514Z,1016.86
2018-01-27T07:17:14.084Z,1016.89
2018-01-27T07:17:54.672Z,1016.95
2018-01-27T07:18:35.216Z,1016.92
2018-01-27T07:19:15.760Z,1016.95
2018-01-27T07:19:56.288Z,1016.94
2018-01-27T07:20:36.821Z,1016.91
2018-01-27T07:21:17.367Z,1016.9
2018-01-27T07:21:57.928Z,1016.92
2018-01-27T07:22:38.454Z,1016.91
2018-01-27T07:23:18.996Z,1016.91
2018-01-27T07:23:59.536Z,1016.93
2018-01-27T07:24:40.089Z,1016.88
2018-01-27T07:25:20.662Z,1016.9
2018-01-27T07:26:01.226Z,1016.88
2018-01-27T07:26:41.735Z,1016.93
2018-01-27T07:27:22.284Z,1016.91
2018-01-27T07:28:02.820Z,1016.97
2018-01-27T07:28:43.376Z,1017.01
2018-01-27T07:29:23.906Z,1017.01
2018-01-27T07:30:04.467Z,1017.05
2018-01-27T07:30:45.017Z,1017.08
2018-01-27T07:31:25.587Z,1017.08
2018-01-27T07:32:06.150Z,1017.07
2018-01-27T07:32:46.686Z,1017.16
2018-01-27T07:33:27.244Z,1017.11
2018-01-27T07:34:07.806Z,1017.18
2018-01-27T07:34:48.389Z,1017.18
2018-01-27T07:35:28.953Z,1017.2
2018-01-27T07:36:09.476Z,1017.24
2018-01-27T07:36:50.103Z,1017.23
2018-01-27T07:37:30.614Z,1017.29
2018-01-27T07:38:11.216Z,1017.24
2018-01-27T07:38:51.693Z,1017.22
2018-01-27T07:39:32.237Z,1017.23
2018-01-27T07:40:12.758Z,1017.25
2018-01-27T07:40:53.339Z,1017.19
2018-01-27T07:41:33.830Z,1017.22
2018-01-27T07:42:14.391Z,1017.24
2018-01-27T07:42:54.965Z,1017.22
2018-01-27T07:43:35.496Z,1017.27
2018-01-27T07:44:16.118Z,1017.32
2018-01-27T07:44:56.598Z,1017.32
2018-01-27T07:45:37.156Z,1017.35
2018-01-27T07:46:17.715Z,1017.32
2018-01-27T07:46:58.203Z,1017.37
2018-01-27T07:47:38.729Z,1017.41
2018-01-27T07:48:19.291Z,1017.41
2018-01-27T07:48:59.837Z,1017.39
2018-01-27T07:49:40.384Z,1017.43
2018-01-27T07:50:20.902Z,1017.44
2018-01-27T07:51:01.447Z,1017.43
2018-01-27T07:51:42.030Z,1017.43
2018-01-27T07:52:22.573Z,1017.48
2018-01-27T07:53:03.122Z,1017.46
2018-01-27T07:53:43.680Z,1017.41
2018-01-27T07:54:24.168Z,1017.4
2018-01-27T07:55:04.734Z,1017.4
2018-01-27T07:55:45.310Z,1017.38
2018-01-27T07:56:25.803Z,1017.38
2018-01-27T07:57:06.371Z,1017.41
2018-01-27T07:57:46.905Z,1017.4
2018-01-27T07:58:27.451Z,1017.38
2018-01-27T07:59:07.985Z,1017.41
2018-01-27T07:59:48.535Z,1017.46
2018-01-27T08:00:29.109Z,1017.47
2018-01-27T08:01:09.597Z,1017.5
2018-01-27T08:01:50.182Z,1017.42
2018-01-27T08:02:30.721Z,1017.42
2018-01-27T08:03:11.251Z,1017.42
2018-01-27T08:03:51.808Z,1017.42
2018-01-27T08:04:32.357Z,1017.4
2018-01-27T08:05:12.851Z,1017.42
2018-01-27T08:05:53.369Z,1017.42
2018-01-27T08:06:33.899Z,1017.46
2018-01-27T08:07:14.471Z,1017.43
2018-01-27T08:07:55.041Z,1017.45
2018-01-27T08:08:35.523Z,1017.47
2018-01-27T08:09:16.063Z,1017.46
2018-01-27T08:09:56.651Z,1017.48
2018-01-27T08:10:37.176Z,1017.45
2018-01-27T08:11:17.700Z,1017.44
2018-01-27T08:11:58.239Z,1017.5
2018-01-27T08:12:38.839Z,1017.48